Terminal Aerodrome Forecast
Issued by NWS

Home | Current Version | Previous Version | Text Only | Print | Product List | Glossary On
Versions: 1 2 3 4 5 6 7 8 9 10 11 12 13 14 15
000
FTUS43 KPAH 312325
TAFCGI
TAF
KCGI 312325Z 0100/0124 00000KT P6SM FEW100 SCT250
     FM010900 00000KT 4SM BR SCT080 BKN200
     FM011400 22004KT P6SM SCT100 BKN200
     FM011600 26005KT P6SM SCT040 BKN100 PROB30 0116/0122 3SM TSRA
      BKN030CB=

USA.gov is the U.S. government's official web portal to all federal, state and local government web resources and services.